createdAt,value
2018-05-05T00:02:39.059Z,51.90
2018-05-05T00:07:44.216Z,52.20
2018-05-05T00:12:47.960Z,52.40
2018-05-05T00:17:50.740Z,52.00
2018-05-05T00:22:54.876Z,52.20
2018-05-05T00:28:00.287Z,51.90
2018-05-05T00:33:06.900Z,51.90
2018-05-05T00:38:10.528Z,51.90
2018-05-05T00:43:15.760Z,52.00
2018-05-05T00:48:19.979Z,51.90
2018-05-05T00:53:25.351Z,51.70
2018-05-05T00:58:28.450Z,51.50
2018-05-05T01:03:32.271Z,51.80
2018-05-05T01:08:35.997Z,51.90
2018-05-05T01:13:38.894Z,51.80
2018-05-05T01:18:42.658Z,52.30
2018-05-05T01:23:47.048Z,52.30
2018-05-05T01:28:49.927Z,52.30
2018-05-05T01:33:53.430Z,52.90
2018-05-05T01:38:56.928Z,52.40
2018-05-05T01:43:59.965Z,52.50
2018-05-05T01:49:03.411Z,52.60
2018-05-05T01:54:06.784Z,52.70
2018-05-05T01:59:11.090Z,53.10
2018-05-05T02:04:15.481Z,53.10
2018-05-05T02:09:19.181Z,53.00
2018-05-05T02:14:22.031Z,53.10
2018-05-05T02:19:26.351Z,53.20
2018-05-05T02:24:29.209Z,53.50
2018-05-05T02:29:33.512Z,53.70
2018-05-05T02:34:38.073Z,53.60
2018-05-05T02:39:44.756Z,53.90
2018-05-05T02:44:50.715Z,54.40
2018-05-05T02:55:02.492Z,54.10
2018-05-05T03:00:05.537Z,54.50
2018-05-05T03:05:11.583Z,54.20
2018-05-05T03:10:15.248Z,54.40
2018-05-05T03:15:21.423Z,54.60
2018-05-05T03:20:24.878Z,54.40
2018-05-05T03:25:27.827Z,54.10
2018-05-05T03:30:31.495Z,54.80
2018-05-05T03:35:35.119Z,55.00
2018-05-05T03:45:47.020Z,55.60
2018-05-05T03:50:50.523Z,54.90
2018-05-05T03:55:54.932Z,55.10
2018-05-05T04:01:10.384Z,55.10
2018-05-05T04:06:14.773Z,55.90
2018-05-05T04:11:21.202Z,55.70
2018-05-05T04:16:25.174Z,55.70
2018-05-05T04:21:29.624Z,56.40
2018-05-05T04:26:38.610Z,56.10
2018-05-05T04:31:41.475Z,56.00
2018-05-05T04:36:44.454Z,56.50
2018-05-05T04:41:51.287Z,56.60
2018-05-05T04:46:54.959Z,56.90
2018-05-05T04:51:59.353Z,56.90
2018-05-05T04:57:04.140Z,57.20
2018-05-05T05:02:07.317Z,57.10
2018-05-05T05:07:11.956Z,57.50
2018-05-05T05:12:20.242Z,57.50
2018-05-05T05:17:24.723Z,57.90
2018-05-05T05:22:29.169Z,57.70
2018-05-05T05:32:43.087Z,58.20
2018-05-05T05:37:51.450Z,58.60
2018-05-05T05:43:00.265Z,58.80
2018-05-05T05:53:14.479Z,58.70
2018-05-05T05:58:22.639Z,58.80
2018-05-05T06:03:25.721Z,58.70
2018-05-05T06:08:31.641Z,58.00
2018-05-05T06:13:38.946Z,57.60
2018-05-05T06:18:44.745Z,57.50
2018-05-05T06:29:11.185Z,56.40
2018-05-05T06:39:36.558Z,56.40
2018-05-05T06:44:51.195Z,56.60
2018-05-05T06:50:00.106Z,56.60
2018-05-05T06:55:09.216Z,56.20
2018-05-05T07:00:13.346Z,56.00
2018-05-05T07:05:21.092Z,56.00
2018-05-05T07:10:30.552Z,55.90
2018-05-05T07:26:06.654Z,55.20
2018-05-05T07:31:12.736Z,55.30
2018-05-05T07:41:32.235Z,54.80
2018-05-05T07:51:50.976Z,54.70
2018-05-05T08:02:12.733Z,54.60
2018-05-05T08:07:30.078Z,54.10
2018-05-05T08:12:49.799Z,53.50
2018-05-05T08:18:00.260Z,52.70
2018-05-05T08:23:09.158Z,53.20
2018-05-05T08:28:15.110Z,54.10
2018-05-05T08:33:28.066Z,52.90
2018-05-05T08:38:34.991Z,53.20
2018-05-05T08:43:48.603Z,52.90
2018-05-05T08:48:57.465Z,53.50
2018-05-05T08:59:10.858Z,52.40
2018-05-05T09:04:17.344Z,51.30
2018-05-05T09:09:25.432Z,51.20
2018-05-05T09:14:33.981Z,51.30
2018-05-05T09:24:52.529Z,50.50
2018-05-05T09:30:06.894Z,49.40
2018-05-05T09:35:19.754Z,49.00
2018-05-05T09:40:28.949Z,49.00
2018-05-05T09:45:36.950Z,49.20
2018-05-05T10:01:09.807Z,47.70
2018-05-05T10:06:15.832Z,47.60
2018-05-05T10:21:47.700Z,46.30
2018-05-05T10:26:59.328Z,45.40
2018-05-05T10:37:27.171Z,43.50
2018-05-05T10:47:48.637Z,43.40
2018-05-05T10:52:55.942Z,43.60
2018-05-05T10:58:13.074Z,43.30
2018-05-05T11:03:38.396Z,43.60
2018-05-05T11:09:00.043Z,42.50
2018-05-05T11:19:24.101Z,43.50
2018-05-05T11:24:36.040Z,42.60
2018-05-05T11:29:44.982Z,42.50
2018-05-05T11:40:02.557Z,42.00
2018-05-05T11:50:42.630Z,41.40
2018-05-05T11:55:53.933Z,41.10
2018-05-05T12:01:01.129Z,41.00
2018-05-05T12:16:36.661Z,40.30
2018-05-05T12:21:45.054Z,40.30
2018-05-05T12:32:04.761Z,39.70
2018-05-05T12:37:16.471Z,40.00
2018-05-05T12:42:26.394Z,40.40
2018-05-05T12:47:34.763Z,40.50
2018-05-05T12:52:43.807Z,40.50
2018-05-05T12:57:52.188Z,39.00
2018-05-05T13:02:59.622Z,39.50
2018-05-05T13:13:29.465Z,40.30
2018-05-05T13:18:37.087Z,40.30
2018-05-05T13:23:45.284Z,40.70
2018-05-05T13:28:51.171Z,40.60
2018-05-05T13:39:09.520Z,40.10
2018-05-05T13:44:16.575Z,40.50
2018-05-05T13:49:32.954Z,40.50
2018-05-05T13:54:48.202Z,40.50
2018-05-05T14:05:14.525Z,40.20
2018-05-05T14:26:40.356Z,40.00
2018-05-05T14:47:31.159Z,40.30
2018-05-05T14:57:55.605Z,40.40
2018-05-05T15:03:04.798Z,40.30
2018-05-05T15:08:13.674Z,39.60
2018-05-05T15:23:53.698Z,39.90
2018-05-05T15:29:04.227Z,40.20
2018-05-05T15:34:09.834Z,40.50
2018-05-05T15:39:24.446Z,40.20
2018-05-05T15:44:29.937Z,40.50
2018-05-05T15:49:38.756Z,40.50
2018-05-05T15:54:44.152Z,40.30
2018-05-05T15:59:51.418Z,41.70
2018-05-05T16:04:54.750Z,43.00
2018-05-05T16:10:00.206Z,43.30
2018-05-05T16:15:03.979Z,43.50
2018-05-05T16:20:10.116Z,43.90
2018-05-05T16:25:16.358Z,44.10
2018-05-05T16:30:35.473Z,44.10
2018-05-05T16:35:43.693Z,44.40
2018-05-05T16:40:49.407Z,44.80
2018-05-05T16:45:56.784Z,44.90
2018-05-05T16:51:03.633Z,45.10
2018-05-05T16:56:10.369Z,45.60
2018-05-05T17:01:21.962Z,46.20
2018-05-05T17:06:29.932Z,46.10
2018-05-05T17:11:36.750Z,45.90
2018-05-05T17:16:50.458Z,46.20
2018-05-05T17:21:56.966Z,46.20
2018-05-05T17:27:02.977Z,46.30
2018-05-05T17:32:11.319Z,46.40
2018-05-05T17:37:22.110Z,45.60
2018-05-05T17:42:37.534Z,45.60
2018-05-05T17:47:41.634Z,45.40
2018-05-05T17:52:49.918Z,45.20
2018-05-05T17:58:01.553Z,45.20
2018-05-05T18:03:08.870Z,45.20
2018-05-05T18:08:18.696Z,45.20
2018-05-05T18:29:10.060Z,45.80
2018-05-05T18:34:19.935Z,46.50
2018-05-05T18:39:29.407Z,46.30
2018-05-05T18:44:33.604Z,46.20
2018-05-05T18:54:47.536Z,46.50
2018-05-05T18:59:56.302Z,46.60
2018-05-05T19:05:01.160Z,46.70
2018-05-05T19:10:05.586Z,46.80
2018-05-05T19:15:09.203Z,46.90
2018-05-05T19:20:13.153Z,47.20
2018-05-05T19:25:18.167Z,47.20
2018-05-05T19:30:22.442Z,47.50
2018-05-05T19:35:25.825Z,48.30
2018-05-05T19:40:29.142Z,48.90
2018-05-05T19:45:32.508Z,49.40
2018-05-05T19:50:39.558Z,49.80
2018-05-05T19:55:42.546Z,50.10
2018-05-05T20:00:50.591Z,50.40
2018-05-05T20:05:53.548Z,50.90
2018-05-05T20:11:00.009Z,50.40
2018-05-05T20:16:04.200Z,50.50
2018-05-05T20:21:08.642Z,50.70
2018-05-05T20:26:12.132Z,50.80
2018-05-05T20:31:17.326Z,51.10
2018-05-05T20:36:20.372Z,51.10
2018-05-05T20:41:24.186Z,51.10
2018-05-05T20:46:31.303Z,51.30
2018-05-05T20:51:36.100Z,52.00
2018-05-05T20:56:40.693Z,52.00
2018-05-05T21:01:43.517Z,52.50
2018-05-05T21:06:49.543Z,52.50
2018-05-05T21:11:56.928Z,52.70
2018-05-05T21:17:03.422Z,52.30
2018-05-05T21:22:08.396Z,51.80
2018-05-05T21:32:23.934Z,51.10
2018-05-05T21:37:30.246Z,50.60
2018-05-05T21:42:36.086Z,51.10
2018-05-05T21:47:45.563Z,49.90
2018-05-05T21:52:53.566Z,49.80
2018-05-05T21:57:59.883Z,49.90
2018-05-05T22:03:04.433Z,49.70
2018-05-05T22:08:07.646Z,49.60
2018-05-05T22:13:13.632Z,49.30
2018-05-05T22:18:18.069Z,49.00
2018-05-05T22:23:23.081Z,48.90
2018-05-05T22:28:28.713Z,48.70
2018-05-05T22:38:41.758Z,49.10
2018-05-05T22:43:47.167Z,49.20
2018-05-05T22:48:51.388Z,49.20
2018-05-05T22:59:03.960Z,48.30
2018-05-05T23:04:32.175Z,47.80
2018-05-05T23:14:45.165Z,46.80
2018-05-05T23:19:48.864Z,46.80
2018-05-05T23:24:52.560Z,46.60
2018-05-05T23:35:03.812Z,46.70
2018-05-05T23:40:08.580Z,46.80
2018-05-05T23:45:15.648Z,46.10
2018-05-05T23:50:18.924Z,45.60
2018-05-05T23:55:25.476Z,45.80
